Time;durP1;ratioP1;P1;durP2;ratioP2;P2;SDS_P1;SDS_P2;PMS_P1;PMS_P2;Temp;Humidity;BMP_temperature;BMP_pressure;BME280_temperature;BME280_humidity;BME280_pressure;Samples;Min_cycle;Max_cycle;Signal;HPM_P1;HPM_P2
2023/05/11 00:02:17;;;;;;;0.00;0.00;;;11.80;99.90;;;;;;5091623;28;20176;-59
2023/05/11 00:04:43;;;;;;;0.00;0.00;;;11.80;99.90;;;;;;5092479;28;20180;-59
2023/05/11 00:07:08;;;;;;;0.00;0.00;;;11.80;99.90;;;;;;5092527;28;20177;-59
2023/05/11 00:09:34;;;;;;;0.00;0.00;;;11.80;99.90;;;;;;5092434;28;20195;-59
2023/05/11 00:12:01;;;;;;;0.00;0.00;;;11.80;99.90;;;;;;5092618;28;20581;-59
2023/05/11 00:14:27;;;;;;;0.00;0.00;;;11.80;99.90;;;;;;5092313;28;20251;-59
2023/05/11 00:16:53;;;;;;;0.00;0.00;;;11.80;99.90;;;;;;5092324;28;20266;-59
2023/05/11 00:19:18;;;;;;;0.00;0.00;;;11.80;99.90;;;;;;5091177;28;20208;-59
2023/05/11 00:21:44;;;;;;;0.00;0.00;;;11.80;99.90;;;;;;5092571;28;20187;-59
2023/05/11 00:24:09;;;;;;;0.00;0.00;;;11.80;99.90;;;;;;5092111;28;20273;-59
2023/05/11 00:26:35;;;;;;;0.00;0.00;;;11.80;99.90;;;;;;5092429;28;20245;-59
2023/05/11 00:29:00;;;;;;;0.00;0.00;;;11.80;99.90;;;;;;5092105;28;20179;-59
2023/05/11 00:31:26;;;;;;;0.00;0.00;;;11.80;99.90;;;;;;5092488;28;20584;-59
2023/05/11 00:33:54;;;;;;;0.00;0.00;;;11.80;99.90;;;;;;5092530;28;20183;-59
2023/05/11 00:36:20;;;;;;;0.00;0.00;;;11.80;99.90;;;;;;5092735;28;20240;-59
2023/05/11 00:38:45;;;;;;;0.00;0.00;;;11.80;99.90;;;;;;5090973;28;20670;-59
2023/05/11 00:41:11;;;;;;;0.00;0.00;;;11.80;99.90;;;;;;5091150;28;20176;-59
2023/05/11 00:43:37;;;;;;;0.00;0.00;;;11.70;99.90;;;;;;5092285;28;20175;-59
2023/05/11 00:46:03;;;;;;;0.00;0.00;;;11.70;99.90;;;;;;5091900;28;20264;-59
2023/05/11 00:48:29;;;;;;;0.00;0.00;;;11.70;99.90;;;;;;5091978;28;20177;-59
2023/05/11 00:50:55;;;;;;;0.00;0.00;;;11.70;99.90;;;;;;5091761;28;20168;-59
2023/05/11 00:53:20;;;;;;;0.00;0.00;;;11.80;99.90;;;;;;5091731;28;20190;-59
2023/05/11 00:55:46;;;;;;;0.00;0.00;;;11.80;99.90;;;;;;5091662;28;20502;-59
2023/05/11 00:58:11;;;;;;;0.00;0.00;;;11.80;99.90;;;;;;5091591;28;20238;-59
2023/05/11 01:00:37;;;;;;;0.00;0.00;;;11.80;99.90;;;;;;5091700;28;20300;-59
2023/05/11 01:03:03;;;;;;;0.00;0.00;;;11.80;99.90;;;;;;5091434;28;20172;-59
2023/05/11 01:05:44;;;;;;;0.00;0.00;;;11.80;99.90;;;;;;5091501;28;20680;-59
2023/05/11 01:08:21;;;;;;;0.00;0.00;;;11.80;99.90;;;;;;5089814;28;20192;-59
2023/05/11 01:10:54;;;;;;;0.00;0.00;;;11.80;99.90;;;;;;5091225;28;20192;-59
2023/05/11 01:13:32;;;;;;;0.00;0.00;;;11.80;99.90;;;;;;5091740;28;20176;-59
2023/05/11 01:16:03;;;;;;;0.00;0.00;;;11.70;99.90;;;;;;5091367;28;20186;-59
2023/05/11 01:18:41;;;;;;;0.00;0.00;;;11.80;99.90;;;;;;5090394;28;20561;-59
2023/05/11 01:21:08;;;;;;;0.00;0.00;;;11.80;99.90;;;;;;5091789;28;20180;-59
2023/05/11 01:23:52;;;;;;;0.00;0.00;;;11.80;99.90;;;;;;5091304;28;20164;-59
2023/05/11 01:26:46;;;;;;;0.00;0.00;;;11.80;99.90;;;;;;5090892;28;20207;-59
2023/05/11 01:29:26;;;;;;;0.00;0.00;;;11.80;99.90;;;;;;5091402;28;20645;-59
2023/05/11 01:31:54;;;;;;;0.00;0.00;;;11.80;99.90;;;;;;5091501;28;20175;-59
2023/05/11 01:34:27;;;;;;;0.00;0.00;;;11.80;99.90;;;;;;5090833;28;20172;-59
2023/05/11 01:36:57;;;;;;;0.00;0.00;;;11.80;99.90;;;;;;5091229;28;20172;-59
2023/05/11 01:39:34;;;;;;;0.00;0.00;;;11.80;99.90;;;;;;5091257;28;20725;-59
2023/05/11 01:42:10;;;;;;;0.00;0.00;;;11.80;99.90;;;;;;5090256;28;20588;-59
2023/05/11 01:44:43;;;;;;;0.52;0.38;;;11.80;99.90;;;;;;5076438;28;20266;-59
2023/05/11 01:47:10;;;;;;;0.00;0.00;;;11.80;99.90;;;;;;5090907;28;20184;-59
2023/05/11 01:49:39;;;;;;;0.00;0.00;;;11.80;99.90;;;;;;5091049;28;20264;-59
2023/05/11 01:52:07;;;;;;;0.00;0.00;;;11.80;99.90;;;;;;5090864;28;20188;-59
2023/05/11 01:54:34;;;;;;;0.00;0.00;;;11.80;99.90;;;;;;5091022;28;20305;-59
2023/05/11 01:57:01;;;;;;;0.00;0.00;;;11.80;99.90;;;;;;5090910;28;20180;-59
2023/05/11 01:59:27;;;;;;;0.00;0.00;;;11.70;99.90;;;;;;5090897;28;20212;-59
2023/05/11 02:01:54;;;;;;;0.00;0.00;;;11.70;99.90;;;;;;5090976;28;20180;-59
2023/05/11 02:04:21;;;;;;;0.00;0.00;;;11.70;99.90;;;;;;5090754;28;20619;-59
2023/05/11 02:06:48;;;;;;;0.03;0.03;;;11.70;99.90;;;;;;5091022;28;20229;-59
2023/05/11 02:09:15;;;;;;;0.00;0.00;;;11.70;99.90;;;;;;5090846;28;20196;-59
2023/05/11 02:11:43;;;;;;;0.00;0.00;;;11.60;99.90;;;;;;5090750;28;20225;-59
2023/05/11 02:14:10;;;;;;;0.00;0.00;;;11.60;99.90;;;;;;5090316;28;20180;-59
2023/05/11 02:16:37;;;;;;;0.00;0.00;;;11.50;99.90;;;;;;5090225;28;20176;-59
2023/05/11 02:19:04;;;;;;;0.00;0.00;;;11.40;99.90;;;;;;5090509;28;20216;-59
2023/05/11 02:21:31;;;;;;;0.00;0.00;;;11.30;99.90;;;;;;5090207;28;20176;-59
2023/05/11 02:23:59;;;;;;;0.00;0.00;;;11.30;99.90;;;;;;5090544;28;20224;-59
2023/05/11 02:26:24;;;;;;;0.00;0.00;;;11.30;99.90;;;;;;5091782;28;20638;-59
2023/05/11 02:28:50;;;;;;;0.00;0.00;;;11.20;99.90;;;;;;5094936;28;20251;-58
2023/05/11 02:31:19;;;;;;;0.00;0.00;;;11.20;99.90;;;;;;5094607;28;20180;-59
2023/05/11 02:33:49;;;;;;;0.00;0.00;;;11.20;99.90;;;;;;5094960;28;20215;-59
2023/05/11 02:36:19;;;;;;;0.00;0.00;;;11.20;99.90;;;;;;5094300;28;20180;-59
2023/05/11 02:38:46;;;;;;;0.00;0.00;;;11.10;99.90;;;;;;5094605;28;20212;-59
2023/05/11 02:41:15;;;;;;;0.00;0.00;;;11.10;99.90;;;;;;5094376;28;20203;-58
2023/05/11 02:43:46;;;;;;;0.10;0.10;;;11.10;99.90;;;;;;5094418;28;20694;-59
2023/05/11 02:46:15;;;;;;;0.00;0.00;;;11.10;99.90;;;;;;5093089;28;20641;-59
2023/05/11 02:48:45;;;;;;;0.00;0.00;;;11.10;99.90;;;;;;5094722;28;20247;-59
2023/05/11 02:51:14;;;;;;;0.00;0.00;;;11.10;99.90;;;;;;5094388;28;20580;-59
2023/05/11 02:53:42;;;;;;;0.00;0.00;;;11.10;99.90;;;;;;5094689;28;20230;-58
2023/05/11 02:56:08;;;;;;;0.00;0.00;;;11.10;99.90;;;;;;5094207;28;20738;-59
2023/05/11 02:58:34;;;;;;;0.00;0.00;;;11.10;99.90;;;;;;5078248;28;20294;-59
2023/05/11 03:01:00;;;;;;;0.00;0.00;;;11.10;99.90;;;;;;5094128;28;20176;-59
2023/05/11 03:03:25;;;;;;;0.00;0.00;;;11.10;99.90;;;;;;5094372;28;20272;-59
2023/05/11 03:05:51;;;;;;;0.00;0.00;;;11.10;99.90;;;;;;5094274;28;20175;-60
2023/05/11 03:08:17;;;;;;;0.10;0.10;;;11.10;99.90;;;;;;5093777;28;20639;-59
2023/05/11 03:10:44;;;;;;;0.00;0.00;;;11.10;99.90;;;;;;5094175;28;20176;-59
2023/05/11 03:13:10;;;;;;;0.00;0.00;;;11.10;99.90;;;;;;5094015;28;20191;-59
2023/05/11 03:15:37;;;;;;;0.00;0.00;;;11.10;99.90;;;;;;5094123;28;20719;-58
2023/05/11 03:18:05;;;;;;;0.00;0.00;;;11.10;99.90;;;;;;5094007;28;20215;-59
2023/05/11 03:20:34;;;;;;;0.00;0.00;;;11.10;99.90;;;;;;5093875;28;20265;-59
2023/05/11 03:23:00;;;;;;;0.00;0.00;;;11.20;99.90;;;;;;5093095;28;20186;-59
2023/05/11 03:25:28;;;;;;;0.10;0.10;;;11.20;99.90;;;;;;5093631;28;20231;-59
2023/05/11 03:27:54;;;;;;;0.00;0.00;;;11.20;99.90;;;;;;5093625;28;20184;-59
2023/05/11 03:30:21;;;;;;;0.00;0.00;;;11.20;99.90;;;;;;5094017;28;20176;-59
2023/05/11 03:32:47;;;;;;;0.00;0.00;;;11.20;99.90;;;;;;5093506;28;20175;-58
2023/05/11 03:35:13;;;;;;;0.00;0.00;;;11.20;99.90;;;;;;5093099;28;20188;-59
2023/05/11 03:37:39;;;;;;;0.00;0.00;;;11.20;99.90;;;;;;5093316;28;20180;-60
2023/05/11 03:40:07;;;;;;;0.00;0.00;;;11.20;99.90;;;;;;5092651;28;20567;-60
2023/05/11 03:42:34;;;;;;;0.00;0.00;;;11.20;99.90;;;;;;5090704;28;20187;-58
2023/05/11 03:45:01;;;;;;;0.00;0.00;;;11.20;99.90;;;;;;5091983;28;20181;-62
2023/05/11 03:47:28;;;;;;;0.00;0.00;;;11.20;99.90;;;;;;5090381;28;20249;-59
2023/05/11 03:49:55;;;;;;;0.00;0.00;;;11.20;99.90;;;;;;5092824;28;20176;-59
2023/05/11 03:52:22;;;;;;;0.00;0.00;;;11.20;99.90;;;;;;5090288;28;20176;-59
2023/05/11 03:54:48;;;;;;;0.05;0.05;;;11.20;99.90;;;;;;5092532;28;20180;-58
2023/05/11 03:57:14;;;;;;;0.00;0.00;;;11.20;99.90;;;;;;5092636;28;20772;-60
2023/05/11 03:59:40;;;;;;;0.00;0.00;;;11.20;99.90;;;;;;5092458;28;20574;-62
2023/05/11 04:02:06;;;;;;;0.10;0.10;;;11.20;99.90;;;;;;5092458;28;20190;-59
2023/05/11 04:04:32;;;;;;;0.00;0.00;;;11.20;99.90;;;;;;5091498;28;20532;-58
2023/05/11 04:06:58;;;;;;;0.00;0.00;;;11.20;99.90;;;;;;5092407;28;20172;-62
2023/05/11 04:09:23;;;;;;;0.00;0.00;;;11.20;99.90;;;;;;5092683;28;20538;-59
2023/05/11 04:11:49;;;;;;;0.03;0.03;;;11.20;99.90;;;;;;5093105;28;20800;-58
2023/05/11 04:14:16;;;;;;;0.00;0.00;;;11.20;99.90;;;;;;5090040;28;20234;-62
2023/05/11 04:16:42;;;;;;;0.00;0.00;;;11.20;99.90;;;;;;5084768;28;20180;-61
2023/05/11 04:19:08;;;;;;;0.00;0.00;;;11.20;99.90;;;;;;5092324;28;20590;-59
2023/05/11 04:21:34;;;;;;;0.00;0.00;;;11.20;99.90;;;;;;5092342;28;20181;-59
2023/05/11 04:24:00;;;;;;;0.00;0.00;;;11.30;99.90;;;;;;5091612;28;20787;-59
2023/05/11 04:26:25;;;;;;;0.00;0.00;;;11.30;99.90;;;;;;5092777;28;20192;-59
2023/05/11 04:28:51;;;;;;;0.00;0.00;;;11.30;99.90;;;;;;5092627;28;20180;-59
2023/05/11 04:31:16;;;;;;;0.00;0.00;;;11.30;99.90;;;;;;5092654;28;20176;-59
2023/05/11 04:33:42;;;;;;;0.00;0.00;;;11.30;99.90;;;;;;5092730;28;20790;-59
2023/05/11 04:36:07;;;;;;;0.00;0.00;;;11.30;99.90;;;;;;5092482;28;20168;-59
2023/05/11 04:38:33;;;;;;;0.00;0.00;;;11.30;99.90;;;;;;5092632;28;20206;-59
2023/05/11 04:41:07;;;;;;;0.00;0.00;;;11.40;99.90;;;;;;5092530;28;20184;-59
2023/05/11 04:43:32;;;;;;;0.00;0.00;;;11.40;99.90;;;;;;5092512;28;20646;-59
2023/05/11 04:45:58;;;;;;;0.00;0.00;;;11.40;99.90;;;;;;5091181;28;20176;-59
2023/05/11 04:48:25;;;;;;;0.00;0.00;;;11.50;99.90;;;;;;5091986;28;20164;-59
2023/05/11 04:50:50;;;;;;;0.00;0.00;;;11.50;99.90;;;;;;5091880;28;20175;-59
2023/05/11 04:53:16;;;;;;;0.00;0.00;;;11.40;99.90;;;;;;5092125;28;20521;-60
2023/05/11 04:55:42;;;;;;;0.00;0.00;;;11.40;99.90;;;;;;5092437;28;20168;-60
2023/05/11 04:58:07;;;;;;;0.08;0.08;;;11.40;99.90;;;;;;5091944;28;20220;-60
2023/05/11 05:00:33;;;;;;;0.00;0.00;;;11.40;99.90;;;;;;5092427;28;20176;-59
2023/05/11 05:02:58;;;;;;;0.00;0.00;;;11.50;99.90;;;;;;5092307;28;20176;-59
2023/05/11 05:05:24;;;;;;;0.00;0.00;;;11.50;99.90;;;;;;5092215;28;20176;-59
2023/05/11 05:07:49;;;;;;;0.00;0.00;;;11.50;99.90;;;;;;5092011;28;20634;-59
2023/05/11 05:10:15;;;;;;;0.00;0.00;;;11.50;99.90;;;;;;5091957;28;20176;-59
2023/05/11 05:12:40;;;;;;;0.00;0.00;;;11.60;99.90;;;;;;5092132;28;20264;-59
2023/05/11 05:15:06;;;;;;;0.00;0.00;;;11.60;99.90;;;;;;5091795;28;20317;-59
2023/05/11 05:17:32;;;;;;;0.00;0.00;;;11.60;99.90;;;;;;5091770;28;20168;-59
2023/05/11 05:19:58;;;;;;;0.00;0.00;;;11.60;99.90;;;;;;5091798;28;20273;-59
2023/05/11 05:22:24;;;;;;;0.00;0.00;;;11.60;99.90;;;;;;5091999;28;20164;-59
2023/05/11 05:24:49;;;;;;;0.00;0.00;;;11.60;99.90;;;;;;5091556;28;20224;-59
2023/05/11 05:27:15;;;;;;;0.00;0.00;;;11.60;99.90;;;;;;5091615;28;20194;-59
2023/05/11 05:29:40;;;;;;;0.00;0.00;;;11.70;99.90;;;;;;5091743;28;20176;-59
2023/05/11 05:32:06;;;;;;;0.00;0.00;;;11.70;99.90;;;;;;5091549;28;20183;-59
2023/05/11 05:34:31;;;;;;;0.00;0.00;;;11.70;99.90;;;;;;5091657;28;20198;-59
2023/05/11 05:36:57;;;;;;;0.00;0.00;;;11.70;99.90;;;;;;5091585;28;20207;-59
2023/05/11 05:39:23;;;;;;;0.00;0.00;;;11.70;99.90;;;;;;5091384;28;20306;-59
2023/05/11 05:41:48;;;;;;;0.00;0.00;;;11.70;99.90;;;;;;5091387;28;20623;-59
2023/05/11 05:44:14;;;;;;;0.00;0.00;;;11.80;99.90;;;;;;5091461;28;20168;-59
2023/05/11 05:46:39;;;;;;;0.00;0.00;;;11.80;99.90;;;;;;5091411;28;20221;-59
2023/05/11 05:49:05;;;;;;;0.00;0.00;;;11.80;99.90;;;;;;5091296;28;20175;-60
2023/05/11 05:51:31;;;;;;;0.00;0.00;;;11.80;99.90;;;;;;5091284;28;20807;-59
2023/05/11 05:53:57;;;;;;;0.00;0.00;;;11.80;99.90;;;;;;5091436;28;20298;-59
2023/05/11 05:56:22;;;;;;;0.00;0.00;;;11.80;99.90;;;;;;5091261;28;20686;-58
2023/05/11 05:58:48;;;;;;;0.00;0.00;;;11.80;99.90;;;;;;5091149;28;20233;-58
2023/05/11 06:01:13;;;;;;;0.00;0.00;;;11.70;99.90;;;;;;5091162;28;20310;-59
2023/05/11 06:03:39;;;;;;;0.00;0.00;;;11.80;99.90;;;;;;5091136;28;20185;-59
2023/05/11 06:06:05;;;;;;;0.50;0.50;;;11.90;99.90;;;;;;5090932;28;20193;-59
2023/05/11 06:08:31;;;;;;;0.00;0.00;;;11.90;99.90;;;;;;5091177;28;20188;-59
2023/05/11 06:10:57;;;;;;;0.00;0.00;;;12.00;99.90;;;;;;5091106;28;20179;-59
2023/05/11 06:13:23;;;;;;;0.00;0.00;;;12.10;99.90;;;;;;5090757;28;20172;-59
2023/05/11 06:15:48;;;;;;;0.00;0.00;;;12.20;99.90;;;;;;5091070;28;20204;-59
2023/05/11 06:18:14;;;;;;;0.00;0.00;;;12.20;99.90;;;;;;5090881;28;20709;-59
2023/05/11 06:20:39;;;;;;;0.00;0.00;;;12.20;99.90;;;;;;5091116;28;20659;-59
2023/05/11 06:23:05;;;;;;;0.00;0.00;;;12.20;99.90;;;;;;5090845;28;20172;-59
2023/05/11 06:25:33;;;;;;;0.00;0.00;;;12.20;99.90;;;;;;5090822;28;20227;-59
2023/05/11 06:27:59;;;;;;;0.30;0.10;;;12.30;99.90;;;;;;5090946;28;20168;-59
2023/05/11 06:30:24;;;;;;;0.00;0.00;;;12.30;99.90;;;;;;5090927;28;20269;-59
2023/05/11 06:32:50;;;;;;;0.00;0.00;;;12.40;99.90;;;;;;5090909;28;20160;-59
2023/05/11 06:35:16;;;;;;;0.00;0.00;;;12.40;99.90;;;;;;5090662;28;20496;-59
2023/05/11 06:37:41;;;;;;;0.00;0.00;;;12.50;99.90;;;;;;5090662;28;20181;-59
2023/05/11 06:40:07;;;;;;;0.00;0.00;;;12.50;99.90;;;;;;5090817;28;20188;-59
2023/05/11 06:42:33;;;;;;;0.00;0.00;;;12.60;99.90;;;;;;5090770;28;20266;-59
2023/05/11 06:44:58;;;;;;;0.00;0.00;;;12.60;99.90;;;;;;5090920;28;20263;-59
2023/05/11 06:47:24;;;;;;;0.10;0.10;;;12.60;99.90;;;;;;5090594;28;20165;-59
2023/05/11 06:49:49;;;;;;;0.05;0.05;;;12.60;99.90;;;;;;5090681;28;20635;-59
2023/05/11 06:52:15;;;;;;;0.00;0.00;;;12.60;99.90;;;;;;5090587;28;20564;-59
2023/05/11 06:54:40;;;;;;;0.00;0.00;;;12.70;99.90;;;;;;5090739;28;20191;-59
2023/05/11 06:57:06;;;;;;;0.00;0.00;;;12.80;99.90;;;;;;5090575;28;20211;-59
2023/05/11 06:59:32;;;;;;;0.00;0.00;;;12.90;99.90;;;;;;5090486;28;20204;-59
2023/05/11 07:01:57;;;;;;;0.00;0.00;;;13.00;99.90;;;;;;5090393;28;20173;-59
2023/05/11 07:04:23;;;;;;;0.00;0.00;;;13.00;99.90;;;;;;5090453;28;20200;-59
2023/05/11 07:06:48;;;;;;;0.00;0.00;;;13.10;99.90;;;;;;5090512;28;20183;-59
2023/05/11 07:09:14;;;;;;;0.00;0.00;;;13.00;99.90;;;;;;5090661;28;20221;-59
2023/05/11 07:11:40;;;;;;;0.00;0.00;;;13.00;99.90;;;;;;5090802;28;20164;-59
2023/05/11 07:14:07;;;;;;;0.00;0.00;;;13.10;99.90;;;;;;5094332;28;20203;-59
2023/05/11 07:16:36;;;;;;;0.00;0.00;;;13.20;99.90;;;;;;5094531;28;20575;-59
2023/05/11 07:19:03;;;;;;;0.00;0.00;;;13.20;99.90;;;;;;5094243;28;20261;-59
2023/05/11 07:21:28;;;;;;;0.00;0.00;;;13.10;99.90;;;;;;5094517;28;20175;-58
2023/05/11 07:23:54;;;;;;;0.00;0.00;;;13.00;99.90;;;;;;5094166;28;20276;-59
2023/05/11 07:26:20;;;;;;;0.00;0.00;;;12.80;99.90;;;;;;5094223;28;20271;-59
2023/05/11 07:28:46;;;;;;;0.00;0.00;;;12.70;99.90;;;;;;5094219;28;20172;-59
2023/05/11 07:31:13;;;;;;;0.00;0.00;;;12.80;99.90;;;;;;5094100;28;20721;-59
2023/05/11 07:33:38;;;;;;;0.00;0.00;;;12.80;99.90;;;;;;5094199;28;20207;-59
2023/05/11 07:36:05;;;;;;;0.08;0.03;;;12.80;99.90;;;;;;5093795;28;20176;-59
2023/05/11 07:38:30;;;;;;;0.20;0.20;;;12.80;99.90;;;;;;5093905;28;20596;-59
2023/05/11 07:40:56;;;;;;;0.00;0.00;;;12.90;99.90;;;;;;5094009;28;20176;-59
2023/05/11 07:43:21;;;;;;;0.00;0.00;;;12.90;99.90;;;;;;5093797;28;20191;-59
2023/05/11 07:45:47;;;;;;;0.00;0.00;;;13.00;99.90;;;;;;5094044;28;20177;-59
2023/05/11 07:48:12;;;;;;;0.00;0.00;;;13.00;99.90;;;;;;5093874;28;20635;-59
2023/05/11 07:50:38;;;;;;;0.00;0.00;;;13.00;99.90;;;;;;5093978;28;20165;-59
2023/05/11 07:53:04;;;;;;;0.00;0.00;;;12.90;99.90;;;;;;5093716;28;20207;-59
2023/05/11 07:55:30;;;;;;;0.00;0.00;;;12.90;99.90;;;;;;5094017;28;20172;-59
2023/05/11 07:57:55;;;;;;;0.00;0.00;;;12.90;99.90;;;;;;5093820;28;20594;-59
2023/05/11 08:00:21;;;;;;;0.00;0.00;;;12.90;99.90;;;;;;5093713;28;20263;-59
2023/05/11 08:02:47;;;;;;;0.00;0.00;;;13.00;99.90;;;;;;5093812;28;20178;-59
2023/05/11 08:05:12;;;;;;;0.00;0.00;;;13.00;99.90;;;;;;5093542;28;20172;-59
2023/05/11 08:07:38;;;;;;;0.00;0.00;;;13.00;99.90;;;;;;5093629;28;20172;-59
2023/05/11 08:10:04;;;;;;;0.00;0.00;;;13.00;99.90;;;;;;5093462;28;20168;-59
2023/05/11 08:12:30;;;;;;;0.00;0.00;;;13.10;99.90;;;;;;5093561;28;20202;-59
2023/05/11 08:14:55;;;;;;;0.00;0.00;;;13.10;99.90;;;;;;5093457;28;20172;-59
2023/05/11 08:17:21;;;;;;;0.00;0.00;;;13.20;99.90;;;;;;5093324;28;20172;-59
2023/05/11 08:19:46;;;;;;;0.00;0.00;;;13.10;99.90;;;;;;5093343;28;20208;-59
2023/05/11 08:22:12;;;;;;;0.00;0.00;;;13.10;99.90;;;;;;5093315;28;20207;-59
2023/05/11 08:24:37;;;;;;;0.10;0.10;;;13.10;99.90;;;;;;5092016;28;20258;-59
2023/05/11 08:27:03;;;;;;;0.00;0.00;;;13.10;99.90;;;;;;5092982;28;20180;-59
2023/05/11 08:29:29;;;;;;;0.00;0.00;;;13.00;99.90;;;;;;5093305;28;20198;-59
2023/05/11 08:31:55;;;;;;;0.00;0.00;;;13.10;99.90;;;;;;5093179;28;20669;-59
2023/05/11 08:34:21;;;;;;;0.00;0.00;;;13.10;99.90;;;;;;5093239;28;20546;-59
2023/05/11 08:36:47;;;;;;;0.00;0.00;;;13.10;99.90;;;;;;5093175;28;20180;-59
2023/05/11 08:39:13;;;;;;;0.00;0.00;;;13.10;99.90;;;;;;5092962;28;20230;-59
2023/05/11 08:41:38;;;;;;;0.00;0.00;;;13.20;99.90;;;;;;5093108;28;20259;-59
2023/05/11 08:44:04;;;;;;;0.00;0.00;;;13.30;99.90;;;;;;5092908;28;20176;-59
2023/05/11 08:46:34;;;;;;;0.00;0.00;;;13.50;99.90;;;;;;5093036;28;20172;-59
2023/05/11 08:49:00;;;;;;;0.00;0.00;;;13.60;99.90;;;;;;5092852;28;20251;-59
2023/05/11 08:51:27;;;;;;;0.00;0.00;;;13.60;99.90;;;;;;5092944;28;20262;-59
2023/05/11 08:53:52;;;;;;;0.00;0.00;;;13.70;99.90;;;;;;5092782;28;20815;-59
2023/05/11 08:56:20;;;;;;;0.10;0.10;;;13.80;99.90;;;;;;5092774;28;20217;-59
2023/05/11 08:58:46;;;;;;;0.30;0.30;;;13.70;99.90;;;;;;5092629;28;20310;-59
2023/05/11 09:01:13;;;;;;;0.00;0.00;;;13.80;99.90;;;;;;5092576;28;20258;-59
2023/05/11 09:03:41;;;;;;;0.00;0.00;;;13.70;99.90;;;;;;5092591;28;20180;-59
2023/05/11 09:06:07;;;;;;;0.00;0.00;;;13.80;99.90;;;;;;5092469;28;20735;-59
2023/05/11 09:08:36;;;;;;;0.00;0.00;;;13.90;99.90;;;;;;5092604;28;20211;-59
2023/05/11 09:11:02;;;;;;;0.20;0.20;;;14.00;99.90;;;;;;5092324;28;20546;-59
2023/05/11 09:13:29;;;;;;;0.00;0.00;;;13.90;99.90;;;;;;5092536;28;20168;-59
2023/05/11 09:15:55;;;;;;;0.00;0.00;;;13.90;99.90;;;;;;5092327;28;20184;-59
2023/05/11 09:18:20;;;;;;;0.00;0.00;;;13.80;99.90;;;;;;5092210;28;20581;-59
2023/05/11 09:20:48;;;;;;;0.00;0.00;;;13.80;99.90;;;;;;5092299;28;20188;-58
2023/05/11 09:23:17;;;;;;;0.00;0.00;;;13.70;99.90;;;;;;5092204;28;20174;-59
2023/05/11 09:25:43;;;;;;;0.00;0.00;;;13.70;99.90;;;;;;5092056;28;20200;-59
2023/05/11 09:28:12;;;;;;;0.00;0.00;;;13.70;99.90;;;;;;5092176;28;20180;-59
2023/05/11 09:30:38;;;;;;;0.03;0.03;;;13.80;99.90;;;;;;5092201;28;20180;-59
2023/05/11 09:33:03;;;;;;;0.00;0.00;;;14.00;99.90;;;;;;5091804;28;20202;-59
2023/05/11 09:35:32;;;;;;;0.10;0.10;;;14.00;99.90;;;;;;5091913;28;20184;-59
2023/05/11 09:38:03;;;;;;;0.00;0.00;;;14.10;99.90;;;;;;5091893;28;20206;-59
2023/05/11 09:40:30;;;;;;;0.00;0.00;;;14.10;99.90;;;;;;5091976;28;20659;-59
2023/05/11 09:42:55;;;;;;;0.00;0.00;;;14.00;99.90;;;;;;5091873;28;20540;-59
2023/05/11 09:45:41;;;;;;;0.00;0.00;;;14.10;99.90;;;;;;5091799;28;20172;-59
2023/05/11 09:48:22;;;;;;;0.20;0.20;;;14.20;99.90;;;;;;5091884;28;20237;-59
2023/05/11 09:50:51;;;;;;;0.00;0.00;;;14.30;99.90;;;;;;5091925;28;20176;-59
2023/05/11 09:53:17;;;;;;;0.00;0.00;;;14.50;99.90;;;;;;5091674;28;20179;-59
2023/05/11 09:55:52;;;;;;;0.00;0.00;;;14.70;99.90;;;;;;5091633;28;20176;-59
2023/05/11 09:58:18;;;;;;;0.10;0.10;;;14.80;99.90;;;;;;5091592;28;20215;-59
2023/05/11 10:00:53;;;;;;;0.00;0.00;;;14.70;99.90;;;;;;5091574;28;20172;-59
2023/05/11 10:03:18;;;;;;;0.00;0.00;;;14.70;99.90;;;;;;5091620;28;20687;-59
2023/05/11 10:06:00;;;;;;;0.00;0.00;;;14.80;99.90;;;;;;5091343;28;20263;-59
2023/05/11 10:08:33;;;;;;;0.00;0.00;;;15.00;99.90;;;;;;5091500;28;20172;-59
2023/05/11 10:11:01;;;;;;;0.00;0.00;;;15.10;99.90;;;;;;5091598;28;21277;-59
2023/05/11 10:13:27;;;;;;;0.00;0.00;;;15.10;99.90;;;;;;5091497;28;20168;-59
2023/05/11 10:15:53;;;;;;;0.00;0.00;;;15.00;99.90;;;;;;5091476;28;20179;-59
2023/05/11 10:18:20;;;;;;;0.00;0.00;;;14.90;99.90;;;;;;5091393;28;20204;-59
2023/05/11 10:20:46;;;;;;;0.17;0.17;;;14.80;99.90;;;;;;5091412;28;20313;-59
2023/05/11 10:23:12;;;;;;;0.20;0.20;;;14.90;99.90;;;;;;5091378;28;20671;-59
2023/05/11 10:25:38;;;;;;;0.00;0.00;;;14.80;99.90;;;;;;5091289;28;20244;-59
2023/05/11 10:28:05;;;;;;;0.00;0.00;;;14.90;99.90;;;;;;5091143;28;20266;-59
2023/05/11 10:30:33;;;;;;;0.00;0.00;;;15.00;99.90;;;;;;5091486;28;20176;-59
2023/05/11 10:33:00;;;;;;;0.00;0.00;;;15.00;99.90;;;;;;5091225;28;20176;-59
2023/05/11 10:35:26;;;;;;;0.00;0.00;;;15.20;99.90;;;;;;5091416;28;20583;-59
2023/05/11 10:37:52;;;;;;;0.00;0.00;;;15.30;99.90;;;;;;5091197;28;20203;-59
2023/05/11 10:40:18;;;;;;;0.00;0.00;;;15.50;99.90;;;;;;5091245;28;20647;-59
2023/05/11 10:42:59;;;;;;;0.00;0.00;;;15.30;99.90;;;;;;5091331;28;20183;-59
2023/05/11 10:45:46;;;;;;;0.00;0.00;;;15.50;99.90;;;;;;5091224;28;20191;-59
2023/05/11 10:48:49;;;;;;;0.00;0.00;;;15.70;99.90;;;;;;5093637;28;20188;-59
2023/05/11 10:51:53;;;;;;;0.00;0.00;;;15.90;99.90;;;;;;5095002;28;20709;-59
2023/05/11 10:54:38;;;;;;;0.00;0.00;;;16.20;99.90;;;;;;5095181;28;20237;-59
2023/05/11 10:57:22;;;;;;;0.08;0.08;;;16.40;99.90;;;;;;5094432;28;20680;-59
2023/05/11 11:00:13;;;;;;;0.47;0.10;;;16.40;99.90;;;;;;5094990;28;20332;-59
2023/05/11 11:02:39;;;;;;;0.10;0.10;;;16.50;99.90;;;;;;5095099;28;20176;-59
2023/05/11 11:05:08;;;;;;;0.00;0.00;;;16.30;99.90;;;;;;5094753;28;20190;-59
2023/05/11 11:07:59;;;;;;;0.00;0.00;;;16.10;99.90;;;;;;5094877;28;20194;-59
2023/05/11 11:10:35;;;;;;;0.00;0.00;;;16.00;99.90;;;;;;5094796;28;20176;-59
2023/05/11 11:13:09;;;;;;;0.00;0.00;;;16.10;99.90;;;;;;5094704;28;20210;-59
2023/05/11 11:15:53;;;;;;;0.00;0.00;;;16.30;99.90;;;;;;5094817;28;20697;-59
2023/05/11 11:18:26;;;;;;;0.00;0.00;;;16.40;99.90;;;;;;5094640;28;20207;-59
2023/05/11 11:20:54;;;;;;;0.00;0.00;;;16.40;99.90;;;;;;5094655;28;20184;-59
2023/05/11 11:23:38;;;;;;;0.00;0.00;;;16.40;99.90;;;;;;5094404;28;20164;-59
2023/05/11 11:26:03;;;;;;;0.00;0.00;;;16.50;99.90;;;;;;5094390;28;20176;-59
2023/05/11 11:28:59;;;;;;;0.00;0.00;;;16.60;99.90;;;;;;5094527;28;20175;-59
2023/05/11 11:31:30;;;;;;;0.00;0.00;;;16.50;99.90;;;;;;5093111;28;20180;-59
2023/05/11 11:33:59;;;;;;;0.00;0.00;;;16.50;99.90;;;;;;5094360;28;20171;-59
2023/05/11 11:36:53;;;;;;;0.00;0.00;;;16.40;99.90;;;;;;5094238;28;20167;-59
2023/05/11 11:39:20;;;;;;;0.00;0.00;;;16.50;99.90;;;;;;5094146;28;20207;-59
2023/05/11 11:42:00;;;;;;;0.00;0.00;;;16.70;99.90;;;;;;5094312;28;20176;-59
2023/05/11 11:44:25;;;;;;;0.00;0.00;;;16.90;99.90;;;;;;5094251;28;20176;-59
2023/05/11 11:47:09;;;;;;;0.00;0.00;;;17.20;99.90;;;;;;5094062;28;20191;-59
2023/05/11 11:49:36;;;;;;;0.00;0.00;;;17.30;99.90;;;;;;5094251;28;20535;-59
2023/05/11 11:52:03;;;;;;;0.00;0.00;;;17.30;99.90;;;;;;5093877;28;20179;-59
2023/05/11 11:54:42;;;;;;;0.00;0.00;;;17.40;99.90;;;;;;5094113;28;20255;-59
2023/05/11 11:57:32;;;;;;;0.00;0.00;;;17.60;99.90;;;;;;5093901;28;20171;-59
2023/05/11 11:59:59;;;;;;;0.00;0.00;;;17.70;99.90;;;;;;5093682;28;20247;-59
2023/05/11 12:02:26;;;;;;;0.00;0.00;;;17.90;99.90;;;;;;5093717;28;20198;-59
2023/05/11 12:04:59;;;;;;;0.00;0.00;;;18.20;99.90;;;;;;5093753;28;20522;-59
2023/05/11 12:07:26;;;;;;;0.00;0.00;;;18.40;99.90;;;;;;5093781;28;20267;-59
2023/05/11 12:09:51;;;;;;;0.00;0.00;;;18.50;99.90;;;;;;5093677;28;20241;-59
2023/05/11 12:12:18;;;;;;;0.00;0.00;;;18.50;99.90;;;;;;5093467;28;20650;-59
2023/05/11 12:14:47;;;;;;;0.00;0.00;;;18.50;99.90;;;;;;5093465;28;20187;-59
2023/05/11 12:17:15;;;;;;;0.00;0.00;;;18.60;99.90;;;;;;5093425;28;20647;-59
2023/05/11 12:19:44;;;;;;;0.00;0.00;;;18.80;99.90;;;;;;5093514;28;20693;-59
2023/05/11 12:22:12;;;;;;;0.00;0.00;;;19.00;99.90;;;;;;5093358;28;20183;-59
2023/05/11 12:24:38;;;;;;;0.00;0.00;;;19.00;99.90;;;;;;5093223;28;20691;-59
2023/05/11 12:27:04;;;;;;;0.00;0.00;;;19.10;99.90;;;;;;5093095;28;20179;-60
2023/05/11 12:29:30;;;;;;;0.00;0.00;;;19.20;99.90;;;;;;5093420;28;20183;-57
2023/05/11 12:31:55;;;;;;;0.00;0.00;;;19.40;99.50;;;;;;5093359;28;20169;-57
2023/05/11 12:34:22;;;;;;;0.00;0.00;;;19.40;99.30;;;;;;5091853;28;20207;-57
2023/05/11 12:36:50;;;;;;;0.00;0.00;;;19.40;98.70;;;;;;5091675;28;20529;-58
2023/05/11 12:39:23;;;;;;;0.00;0.00;;;19.40;97.00;;;;;;5092310;28;20208;-59
2023/05/11 12:41:53;;;;;;;0.00;0.00;;;19.50;97.40;;;;;;5092742;28;20180;-59
2023/05/11 12:44:21;;;;;;;0.00;0.00;;;19.60;96.70;;;;;;5092600;28;20253;-59
2023/05/11 12:46:48;;;;;;;0.00;0.00;;;19.50;95.80;;;;;;5092796;28;20186;-59
2023/05/11 12:49:19;;;;;;;0.00;0.00;;;19.40;95.70;;;;;;5092262;28;20215;-59
2023/05/11 12:51:47;;;;;;;0.00;0.00;;;19.40;96.00;;;;;;5093082;28;20168;-59
2023/05/11 12:54:36;;;;;;;0.00;0.00;;;19.60;96.30;;;;;;5092481;28;20198;-60